Fortune Wing — VRHW2 — position and weather

sailwx.info

Track history (hours):
 
Tides and Currents Weather Stations Pressure Air Temp Water Temp Dewpoint Dewpoint Depression Visibility Wind Speed Wind Dir Waves Ship Positions

Fortune Wing

Last reported at 2015-Feb-01 11:33 UTC. Time now 2015-Feb-27 06:01 UTC.
Position N 34°35' W 024°41'.
Warning: this ship's position is 25 days out of date.

Length 190 m; draft 9.9 m.

Type: Cargo ship. MMSI: 477389500.

Date/timePositionNaut miles runAvg speedWind from/ knotsBaromVisibWave heightAir tempDewpointWater temp
2015-Feb-01 11:33N 34°35' W 024°41'1413.0
2015-Feb-01 10:31N 34°37' W 024°24'1212.3
2015-Feb-01 09:33N 34°39' W 024°10'1212.4
2015-Feb-01 08:33N 34°41' W 023°55'1312.4
2015-Feb-01 07:30N 34°43' W 023°40'40511.6
2015-Jan-30 20:28N 35°37' W 015°29'48811.2
2015-Jan-29 01:03N 35°60' W 005°28'4 9.0
2015-Jan-29 00:33N 36°01' W 005°22'10 9.8
2015-Jan-28 23:33N 36°03' W 005°11'22312.1
2015-Jan-28 05:13N 36°39' W 000°38'6611.7
2015-Jan-27 23:33N 36°49' E 000°44'10 9.9
2015-Jan-27 22:33N 36°51' E 000°56'1211.5
2015-Jan-27 21:33N 36°53' E 001°10'  
2015-Jan-25 13:25N 36°35' E 013°42'1011.6
2015-Jan-25 12:33N 36°30' E 013°53'  
2015-Jan-22 12:05N 37°20' E 023°40'  
Track history (hours):
 
Tides and Currents Weather Stations Pressure Air Temp Water Temp Dewpoint Dewpoint Depression Visibility Wind Speed Wind Dir Waves Ship Positions

Fortune Wing

Last reported at 2015-Feb-01 11:33 UTC. Time now 2015-Feb-27 06:01 UTC.
Position N 34°35' W 024°41'.
Warning: this ship's position is 25 days out of date.

Length 190 m; draft 9.9 m.

Type: Cargo ship. MMSI: 477389500.

Date/timePositionNaut miles runAvg speedWind from/ knotsBaromVisibWave heightAir tempDewpointWater temp
2015-Feb-01 11:33N 34°35' W 024°41'1413.0
2015-Feb-01 10:31N 34°37' W 024°24'1212.3
2015-Feb-01 09:33N 34°39' W 024°10'1212.4
2015-Feb-01 08:33N 34°41' W 023°55'1312.4
2015-Feb-01 07:30N 34°43' W 023°40'40511.6
2015-Jan-30 20:28N 35°37' W 015°29'48811.2
2015-Jan-29 01:03N 35°60' W 005°28'4 9.0
2015-Jan-29 00:33N 36°01' W 005°22'10 9.8
2015-Jan-28 23:33N 36°03' W 005°11'22312.1
2015-Jan-28 05:13N 36°39' W 000°38'6611.7
2015-Jan-27 23:33N 36°49' E 000°44'10 9.9
2015-Jan-27 22:33N 36°51' E 000°56'1211.5
2015-Jan-27 21:33N 36°53' E 001°10'  
2015-Jan-25 13:25N 36°35' E 013°42'1011.6
2015-Jan-25 12:33N 36°30' E 013°53'  
2015-Jan-22 12:05N 37°20' E 023°40'  

Dump ship's entire track history